createdAt,value
2019-05-05T00:00:14.428Z,969.18
2019-05-05T00:01:14.759Z,969.31
2019-05-05T00:02:14.458Z,969.28
2019-05-05T00:03:14.726Z,969.31
2019-05-05T00:04:14.921Z,969.32
2019-05-05T00:05:15.478Z,969.40
2019-05-05T00:06:14.750Z,969.41
2019-05-05T00:07:14.879Z,969.43
2019-05-05T00:08:15.296Z,969.50
2019-05-05T00:09:14.684Z,969.41
2019-05-05T00:10:15.116Z,969.51
2019-05-05T00:11:15.416Z,969.47
2019-05-05T00:12:14.749Z,969.44
2019-05-05T00:13:14.909Z,969.44
2019-05-05T00:14:15.230Z,969.42
2019-05-05T00:15:14.635Z,969.46
2019-05-05T00:16:15.152Z,969.48
2019-05-05T00:17:14.524Z,969.48
2019-05-05T00:18:14.844Z,969.49
2019-05-05T00:19:19.118Z,969.49
2019-05-05T00:20:14.564Z,969.39
2019-05-05T00:21:15.132Z,969.50
2019-05-05T00:22:15.138Z,969.44
2019-05-05T00:23:14.652Z,969.34
2019-05-05T00:24:15.173Z,969.50
2019-05-05T00:25:14.415Z,969.45
2019-05-05T00:26:14.922Z,969.46
2019-05-05T00:27:14.992Z,969.55
2019-05-05T00:28:14.373Z,969.52
2019-05-05T00:29:14.858Z,969.44
2019-05-05T00:30:14.420Z,969.38
2019-05-05T00:31:15.019Z,969.49
2019-05-05T00:32:15.275Z,969.42
2019-05-05T00:33:14.596Z,969.43
2019-05-05T00:34:15.419Z,969.36
2019-05-05T00:35:14.831Z,969.39
2019-05-05T00:36:14.650Z,969.40
2019-05-05T00:37:15.177Z,969.29
2019-05-05T00:38:14.386Z,969.37
2019-05-05T00:39:14.991Z,969.39
2019-05-05T00:40:14.282Z,969.32
2019-05-05T00:41:14.938Z,969.42
2019-05-05T00:42:15.386Z,969.40
2019-05-05T00:43:14.858Z,969.42
2019-05-05T00:44:15.345Z,969.37
2019-05-05T00:45:14.826Z,969.39
2019-05-05T00:46:15.962Z,969.33
2019-05-05T00:47:14.624Z,969.36
2019-05-05T00:48:15.348Z,969.40
2019-05-05T00:49:14.610Z,969.42
2019-05-05T00:50:14.624Z,969.34
2019-05-05T00:51:15.110Z,969.40
2019-05-05T00:52:14.366Z,969.44
2019-05-05T00:53:14.704Z,969.40
2019-05-05T00:54:14.889Z,969.42
2019-05-05T00:55:15.176Z,969.42
2019-05-05T00:56:14.472Z,969.48
2019-05-05T00:57:14.962Z,969.60
2019-05-05T00:58:14.418Z,969.49
2019-05-05T00:59:14.727Z,969.47
2019-05-05T01:00:15.179Z,969.53
2019-05-05T01:01:14.494Z,969.53
2019-05-05T01:02:15.060Z,969.50
2019-05-05T01:03:15.275Z,969.56
2019-05-05T01:04:14.562Z,969.59
2019-05-05T01:05:14.895Z,969.50
2019-05-05T01:06:15.161Z,969.53
2019-05-05T01:07:14.422Z,969.56
2019-05-05T01:08:14.462Z,969.57
2019-05-05T01:09:14.898Z,969.51
2019-05-05T01:10:14.451Z,969.56
2019-05-05T01:11:14.582Z,969.55
2019-05-05T01:12:15.068Z,969.51
2019-05-05T01:13:15.216Z,969.62
2019-05-05T01:14:14.532Z,969.49
2019-05-05T01:15:15.042Z,969.54
2019-05-05T01:16:15.233Z,969.54
2019-05-05T01:17:14.803Z,969.56
2019-05-05T01:18:15.245Z,969.57
2019-05-05T01:19:15.051Z,969.59
2019-05-05T01:20:14.688Z,969.53
2019-05-05T01:21:15.106Z,969.55
2019-05-05T01:22:14.594Z,969.53
2019-05-05T01:23:15.105Z,969.66
2019-05-05T01:24:14.598Z,969.64
2019-05-05T01:25:14.938Z,969.62
2019-05-05T01:26:14.651Z,969.67
2019-05-05T01:27:14.792Z,969.60
2019-05-05T01:28:14.656Z,969.67
2019-05-05T01:29:14.752Z,969.62
2019-05-05T01:30:15.149Z,969.63
2019-05-05T01:31:14.741Z,969.62
2019-05-05T01:32:15.238Z,969.66
2019-05-05T01:33:14.684Z,969.68
2019-05-05T01:34:15.200Z,969.63
2019-05-05T01:35:14.704Z,969.72
2019-05-05T01:36:14.961Z,969.73
2019-05-05T01:37:15.211Z,969.73
2019-05-05T01:38:14.783Z,969.75
2019-05-05T01:39:14.778Z,969.80
2019-05-05T01:40:14.772Z,969.75
2019-05-05T01:41:14.852Z,969.71
2019-05-05T01:42:14.805Z,969.77
2019-05-05T01:43:14.839Z,969.74
2019-05-05T01:44:15.290Z,969.78
2019-05-05T01:45:15.027Z,969.78
2019-05-05T01:46:14.850Z,969.81
2019-05-05T01:47:14.961Z,969.70
2019-05-05T01:48:14.893Z,969.74
2019-05-05T01:49:14.928Z,969.75
2019-05-05T01:50:20.730Z,969.74
2019-05-05T01:51:14.874Z,969.76
2019-05-05T01:52:15.144Z,969.76
2019-05-05T01:53:15.308Z,969.75
2019-05-05T01:54:14.910Z,969.86
2019-05-05T01:55:14.939Z,969.85
2019-05-05T01:56:15.450Z,969.89
2019-05-05T01:57:15.057Z,969.86
2019-05-05T01:58:15.339Z,969.98
2019-05-05T01:59:14.921Z,969.87
2019-05-05T02:00:14.964Z,969.90
2019-05-05T02:01:15.337Z,969.96
2019-05-05T02:02:14.940Z,969.95
2019-05-05T02:03:14.913Z,970.00
2019-05-05T02:04:14.909Z,970.02
2019-05-05T02:05:14.957Z,970.10
2019-05-05T02:06:14.938Z,970.07
2019-05-05T02:07:14.942Z,970.15
2019-05-05T02:08:15.393Z,970.15
2019-05-05T02:09:15.885Z,970.04
2019-05-05T02:10:15.350Z,970.15
2019-05-05T02:11:15.637Z,970.10
2019-05-05T02:12:15.899Z,970.12
2019-05-05T02:13:16.056Z,970.14
2019-05-05T02:14:15.586Z,970.15
2019-05-05T02:15:15.099Z,970.25
2019-05-05T02:16:15.121Z,970.20
2019-05-05T02:17:14.949Z,970.31
2019-05-05T02:18:15.029Z,970.21
2019-05-05T02:19:14.982Z,970.26
2019-05-05T02:20:27.992Z,970.27
2019-05-05T02:21:14.889Z,970.18
2019-05-05T02:22:14.929Z,970.27
2019-05-05T02:23:15.177Z,970.30
2019-05-05T02:24:14.902Z,970.26
2019-05-05T02:25:14.955Z,970.34
2019-05-05T02:26:15.417Z,970.40
2019-05-05T02:27:14.888Z,970.33
2019-05-05T02:28:15.099Z,970.34
2019-05-05T02:29:14.963Z,970.31
2019-05-05T02:30:16.252Z,970.40
2019-05-05T02:31:16.640Z,970.38
2019-05-05T02:32:15.733Z,970.41
2019-05-05T02:33:15.818Z,970.61
2019-05-05T02:34:16.493Z,970.44
2019-05-05T02:35:16.226Z,970.44
2019-05-05T02:36:15.924Z,970.48
2019-05-05T02:37:16.078Z,970.46
2019-05-05T02:38:15.668Z,970.50
2019-05-05T02:39:16.000Z,970.51
2019-05-05T02:40:15.870Z,970.52
2019-05-05T02:41:15.552Z,970.43
2019-05-05T02:42:14.946Z,970.50
2019-05-05T02:43:15.283Z,970.42
2019-05-05T02:44:15.624Z,970.40
2019-05-05T02:45:15.634Z,970.35
2019-05-05T02:46:14.939Z,970.42
2019-05-05T02:47:15.653Z,970.42
2019-05-05T02:48:15.584Z,970.49
2019-05-05T02:49:15.237Z,970.47
2019-05-05T02:50:15.649Z,970.47
2019-05-05T02:51:15.383Z,970.44
2019-05-05T02:52:15.289Z,970.53
2019-05-05T02:53:14.967Z,970.45
2019-05-05T02:54:14.978Z,970.41
2019-05-05T02:55:14.985Z,970.49
2019-05-05T02:56:15.036Z,970.42
2019-05-05T02:57:15.017Z,970.54
2019-05-05T02:58:15.096Z,970.57
2019-05-05T02:59:15.089Z,970.59
2019-05-05T03:00:15.076Z,970.51
2019-05-05T03:01:15.038Z,970.56
2019-05-05T03:02:15.072Z,970.58
2019-05-05T03:03:15.079Z,970.60
2019-05-05T03:04:15.101Z,970.65
2019-05-05T03:05:15.157Z,970.66
2019-05-05T03:06:15.138Z,970.59
2019-05-05T03:07:15.171Z,970.69
2019-05-05T03:08:15.176Z,970.65
2019-05-05T03:09:15.136Z,970.61
2019-05-05T03:10:15.160Z,970.66
2019-05-05T03:11:15.190Z,970.60
2019-05-05T03:12:15.192Z,970.60
2019-05-05T03:13:15.216Z,970.72
2019-05-05T03:14:15.235Z,970.56
2019-05-05T03:15:15.219Z,970.62
2019-05-05T03:16:15.219Z,970.58
2019-05-05T03:17:15.304Z,970.65
2019-05-05T03:18:15.303Z,970.45
2019-05-05T03:19:15.261Z,970.56
2019-05-05T03:20:15.279Z,970.65
2019-05-05T03:21:15.298Z,970.67
2019-05-05T03:22:15.283Z,970.65
2019-05-05T03:23:15.325Z,970.70
2019-05-05T03:24:15.362Z,970.68
2019-05-05T03:25:15.353Z,970.76
2019-05-05T03:26:15.384Z,970.76
2019-05-05T03:27:15.357Z,970.68
2019-05-05T03:28:15.398Z,970.75
2019-05-05T03:29:15.383Z,970.79
2019-05-05T03:30:15.617Z,970.87
2019-05-05T03:31:16.185Z,970.82
2019-05-05T03:32:16.317Z,970.84
2019-05-05T03:33:16.167Z,970.82
2019-05-05T03:34:16.638Z,970.90
2019-05-05T03:35:15.481Z,970.96
2019-05-05T03:36:15.479Z,970.98
2019-05-05T03:37:15.488Z,971.01
2019-05-05T03:38:15.495Z,970.95
2019-05-05T03:39:15.485Z,970.95
2019-05-05T03:40:15.517Z,971.06
2019-05-05T03:41:15.544Z,970.97
2019-05-05T03:42:15.529Z,970.98
2019-05-05T03:43:15.566Z,970.98
2019-05-05T03:44:15.529Z,970.90
2019-05-05T03:45:15.576Z,970.96
2019-05-05T03:46:15.568Z,971.00
2019-05-05T03:47:15.585Z,970.92
2019-05-05T03:48:15.667Z,971.00
2019-05-05T03:49:15.606Z,970.94
2019-05-05T03:50:15.677Z,970.98
2019-05-05T03:51:18.793Z,971.00
2019-05-05T03:52:15.616Z,971.01
2019-05-05T03:53:15.638Z,971.03
2019-05-05T03:54:15.679Z,971.00
2019-05-05T03:55:15.656Z,971.01
2019-05-05T03:56:15.622Z,970.98
2019-05-05T03:57:15.623Z,971.04
2019-05-05T03:58:15.661Z,971.06
2019-05-05T03:59:15.637Z,971.02
2019-05-05T04:00:15.650Z,971.07
2019-05-05T04:01:15.708Z,971.10
2019-05-05T04:02:15.625Z,971.04
2019-05-05T04:03:15.649Z,971.09
2019-05-05T04:04:15.690Z,971.06
2019-05-05T04:05:15.721Z,971.10
2019-05-05T04:06:15.684Z,971.07
2019-05-05T04:07:15.670Z,971.06
2019-05-05T04:08:15.644Z,971.08
2019-05-05T04:09:15.635Z,971.02
2019-05-05T04:10:15.623Z,971.00
2019-05-05T04:11:15.695Z,971.22
2019-05-05T04:12:15.675Z,971.16
2019-05-05T04:13:15.675Z,971.15
2019-05-05T04:14:18.270Z,971.22
2019-05-05T04:15:15.651Z,971.13
2019-05-05T04:16:15.657Z,971.15
2019-05-05T04:17:15.706Z,971.18
2019-05-05T04:18:15.667Z,971.19
2019-05-05T04:19:15.668Z,971.15
2019-05-05T04:20:15.661Z,971.13
2019-05-05T04:21:15.633Z,971.15
2019-05-05T04:22:15.630Z,971.23
2019-05-05T04:23:15.725Z,971.27
2019-05-05T04:24:15.645Z,971.27
2019-05-05T04:25:15.644Z,971.24
2019-05-05T04:26:15.688Z,971.30
2019-05-05T04:27:15.658Z,971.30
2019-05-05T04:28:15.661Z,971.28
2019-05-05T04:29:15.725Z,971.36
2019-05-05T04:30:15.690Z,971.32
2019-05-05T04:31:15.667Z,971.41
2019-05-05T04:32:15.741Z,971.34
2019-05-05T04:33:15.708Z,971.38
2019-05-05T04:34:15.646Z,971.45
2019-05-05T04:35:15.670Z,971.32
2019-05-05T04:36:15.654Z,971.35
2019-05-05T04:37:15.675Z,971.44
2019-05-05T04:38:15.675Z,971.39
2019-05-05T04:39:15.695Z,971.48
2019-05-05T04:40:15.693Z,971.40
2019-05-05T04:41:15.695Z,971.48
2019-05-05T04:42:15.687Z,971.49
2019-05-05T04:43:15.661Z,971.40
2019-05-05T04:44:17.899Z,971.43
2019-05-05T04:45:15.668Z,971.54
2019-05-05T04:46:15.713Z,971.55
2019-05-05T04:47:15.686Z,971.62
2019-05-05T04:48:15.676Z,971.48
2019-05-05T04:49:15.673Z,971.53
2019-05-05T04:50:18.310Z,971.52
2019-05-05T04:51:15.660Z,971.54
2019-05-05T04:52:15.661Z,971.65
2019-05-05T04:53:15.674Z,971.58
2019-05-05T04:54:15.694Z,971.69
2019-05-05T04:55:15.706Z,971.57
2019-05-05T04:56:15.673Z,971.53
2019-05-05T04:57:15.666Z,971.54
2019-05-05T04:58:15.703Z,971.60
2019-05-05T04:59:15.679Z,971.73
2019-05-05T05:00:15.685Z,971.60
2019-05-05T05:01:15.672Z,971.68
2019-05-05T05:02:15.732Z,971.73
2019-05-05T05:03:15.682Z,971.71
2019-05-05T05:04:15.741Z,971.69
2019-05-05T05:05:15.728Z,971.64
2019-05-05T05:06:15.724Z,971.77
2019-05-05T05:07:15.694Z,971.69
2019-05-05T05:08:15.730Z,971.79
2019-05-05T05:09:15.709Z,971.77
2019-05-05T05:10:15.696Z,971.95
2019-05-05T05:11:15.699Z,971.80
2019-05-05T05:12:15.690Z,971.90
2019-05-05T05:13:15.705Z,971.91
2019-05-05T05:14:15.742Z,971.99
2019-05-05T05:15:15.693Z,971.99
2019-05-05T05:16:15.710Z,972.07
2019-05-05T05:17:15.757Z,971.99
2019-05-05T05:18:15.728Z,972.01
2019-05-05T05:19:15.683Z,972.06
2019-05-05T05:20:15.701Z,972.01
2019-05-05T05:21:15.700Z,972.03
2019-05-05T05:22:15.713Z,972.01
2019-05-05T05:23:15.715Z,972.00
2019-05-05T05:24:15.729Z,972.11
2019-05-05T05:25:15.698Z,972.02
2019-05-05T05:26:15.729Z,972.04
2019-05-05T05:27:15.710Z,972.11
2019-05-05T05:28:15.695Z,972.09
2019-05-05T05:29:15.740Z,972.07
2019-05-05T05:30:15.750Z,972.20
2019-05-05T05:31:15.702Z,972.21
2019-05-05T05:32:15.749Z,972.18
2019-05-05T05:33:15.728Z,972.21
2019-05-05T05:34:15.701Z,972.13
2019-05-05T05:35:15.770Z,972.14
2019-05-05T05:36:15.735Z,972.16
2019-05-05T05:37:15.720Z,972.21
2019-05-05T05:38:15.734Z,972.28
2019-05-05T05:39:15.702Z,972.24
2019-05-05T05:40:15.708Z,972.23
2019-05-05T05:41:15.775Z,972.19
2019-05-05T05:42:15.752Z,972.23
2019-05-05T05:43:15.731Z,972.23
2019-05-05T05:44:15.699Z,972.28
2019-05-05T05:45:15.723Z,972.21
2019-05-05T05:46:15.720Z,972.22
2019-05-05T05:47:15.775Z,972.42
2019-05-05T05:48:15.710Z,972.34
2019-05-05T05:49:15.733Z,972.46
2019-05-05T05:50:15.739Z,972.31
2019-05-05T05:51:15.719Z,972.28
2019-05-05T05:52:18.750Z,972.35
2019-05-05T05:53:15.768Z,972.34
2019-05-05T05:54:15.738Z,972.38
2019-05-05T05:55:15.731Z,972.39
2019-05-05T05:56:15.760Z,972.38
2019-05-05T05:57:15.702Z,972.37
2019-05-05T05:58:15.726Z,972.48
2019-05-05T05:59:15.748Z,972.38
2019-05-05T06:00:15.755Z,972.45
2019-05-05T06:01:15.736Z,972.36
2019-05-05T06:02:15.776Z,972.36
2019-05-05T06:03:15.727Z,972.52
2019-05-05T06:04:15.740Z,972.35
2019-05-05T06:05:15.737Z,972.44
2019-05-05T06:06:15.797Z,972.48
2019-05-05T06:07:15.739Z,972.49
2019-05-05T06:08:15.751Z,972.44
2019-05-05T06:09:15.686Z,972.45
2019-05-05T06:10:23.968Z,972.52
2019-05-05T06:11:15.760Z,972.47
2019-05-05T06:12:15.766Z,972.52
2019-05-05T06:13:15.924Z,972.61
2019-05-05T06:14:15.790Z,972.59
2019-05-05T06:15:15.742Z,972.61
2019-05-05T06:16:15.738Z,972.74
2019-05-05T06:17:15.787Z,972.61
2019-05-05T06:18:15.769Z,972.69
2019-05-05T06:19:15.739Z,972.60
2019-05-05T06:20:15.774Z,972.60
2019-05-05T06:21:15.736Z,972.71
2019-05-05T06:22:28.146Z,972.61
2019-05-05T06:23:15.810Z,972.72
2019-05-05T06:24:15.774Z,972.77
2019-05-05T06:25:16.208Z,972.82
2019-05-05T06:26:15.729Z,972.84
2019-05-05T06:27:15.735Z,972.83
2019-05-05T06:28:15.751Z,972.79
2019-05-05T06:29:15.778Z,972.85
2019-05-05T06:30:15.750Z,972.79
2019-05-05T06:31:15.748Z,972.85
2019-05-05T06:32:15.791Z,972.87
2019-05-05T06:33:15.758Z,972.90
2019-05-05T06:34:15.746Z,972.91
2019-05-05T06:35:15.804Z,972.89
2019-05-05T06:36:15.780Z,972.84
2019-05-05T06:37:15.764Z,972.85
2019-05-05T06:38:15.802Z,972.90
2019-05-05T06:39:15.744Z,972.95
2019-05-05T06:40:15.751Z,972.90
2019-05-05T06:41:15.792Z,973.12
2019-05-05T06:42:15.822Z,972.89
2019-05-05T06:43:15.758Z,972.99
2019-05-05T06:44:15.728Z,972.99
2019-05-05T06:45:15.761Z,973.00
2019-05-05T06:46:15.766Z,973.19
2019-05-05T06:47:15.803Z,973.12
2019-05-05T06:48:15.766Z,973.07
2019-05-05T06:49:15.761Z,973.23
2019-05-05T06:50:15.794Z,973.07
2019-05-05T06:51:15.759Z,973.17
2019-05-05T06:52:15.751Z,973.15
2019-05-05T06:53:15.790Z,973.09
2019-05-05T06:54:15.787Z,973.27
2019-05-05T06:55:15.761Z,973.21
2019-05-05T06:56:15.836Z,973.31
2019-05-05T06:57:15.756Z,973.20
2019-05-05T06:58:15.776Z,973.24
2019-05-05T06:59:15.828Z,973.27
2019-05-05T07:00:15.769Z,973.28
2019-05-05T07:01:15.778Z,973.25
2019-05-05T07:02:15.806Z,973.24
2019-05-05T07:03:15.728Z,973.22
2019-05-05T07:04:15.785Z,973.35
2019-05-05T07:05:15.807Z,973.24
2019-05-05T07:06:15.751Z,973.34
2019-05-05T07:07:15.814Z,973.34
2019-05-05T07:08:15.795Z,973.17
2019-05-05T07:09:15.780Z,973.31
2019-05-05T07:10:15.787Z,973.22
2019-05-05T07:11:15.784Z,973.21
2019-05-05T07:12:15.787Z,973.18
2019-05-05T07:13:15.779Z,973.29
2019-05-05T07:14:15.829Z,973.24
2019-05-05T07:15:15.762Z,973.32
2019-05-05T07:16:15.779Z,973.22
2019-05-05T07:17:15.833Z,973.08
2019-05-05T07:18:15.779Z,973.17
2019-05-05T07:19:15.761Z,973.27
2019-05-05T07:20:15.788Z,973.13
2019-05-05T07:21:15.809Z,973.33
2019-05-05T07:22:17.672Z,973.47
2019-05-05T07:23:15.845Z,973.30
2019-05-05T07:24:15.798Z,973.23
2019-05-05T07:25:15.807Z,973.30
2019-05-05T07:26:15.802Z,973.33
2019-05-05T07:27:15.783Z,973.45
2019-05-05T07:28:15.827Z,973.40
2019-05-05T07:29:18.059Z,973.33
2019-05-05T07:30:15.816Z,973.24
2019-05-05T07:31:15.848Z,973.40
2019-05-05T07:32:15.825Z,973.42
2019-05-05T07:33:15.777Z,973.36
2019-05-05T07:34:15.805Z,973.47
2019-05-05T07:35:15.846Z,973.42
2019-05-05T07:36:15.828Z,973.19
2019-05-05T07:37:15.851Z,973.44
2019-05-05T07:38:15.817Z,973.37
2019-05-05T07:39:15.796Z,973.54
2019-05-05T07:40:15.823Z,973.47
2019-05-05T07:41:15.850Z,973.41
2019-05-05T07:42:15.807Z,973.41
2019-05-05T07:43:15.807Z,973.44
2019-05-05T07:44:25.908Z,973.37
2019-05-05T07:45:22.595Z,973.42
2019-05-05T07:46:15.875Z,973.35
2019-05-05T07:47:15.858Z,973.36
2019-05-05T07:48:15.808Z,973.40
2019-05-05T07:49:15.813Z,973.45
2019-05-05T07:50:28.538Z,973.34
2019-05-05T07:51:15.826Z,973.46
2019-05-05T07:52:15.845Z,973.50
2019-05-05T07:53:17.958Z,973.45
2019-05-05T07:54:15.824Z,973.45
2019-05-05T07:55:15.817Z,973.46
2019-05-05T07:56:15.802Z,973.46
2019-05-05T07:57:15.811Z,973.47
2019-05-05T07:58:15.842Z,973.57
2019-05-05T07:59:15.857Z,973.53
2019-05-05T08:00:15.829Z,973.62
2019-05-05T08:01:15.834Z,973.47
2019-05-05T08:02:15.840Z,973.53
2019-05-05T08:03:15.803Z,973.53
2019-05-05T08:04:15.827Z,973.57
2019-05-05T08:05:15.819Z,973.54
2019-05-05T08:06:15.820Z,973.49
2019-05-05T08:07:15.832Z,973.57
2019-05-05T08:08:15.867Z,973.67
2019-05-05T08:09:15.827Z,973.49
2019-05-05T08:10:15.820Z,973.63
2019-05-05T08:11:15.982Z,973.63
2019-05-05T08:12:15.815Z,973.54
2019-05-05T08:13:15.822Z,973.66
2019-05-05T08:14:15.831Z,973.57
2019-05-05T08:15:15.846Z,973.56
2019-05-05T08:16:15.831Z,973.64
2019-05-05T08:17:15.880Z,973.68
2019-05-05T08:18:15.851Z,973.62
2019-05-05T08:19:15.890Z,973.68
2019-05-05T08:20:19.160Z,973.63
2019-05-05T08:21:15.876Z,973.57
2019-05-05T08:22:15.842Z,973.71
2019-05-05T08:23:29.075Z,973.65
2019-05-05T08:24:15.834Z,973.57
2019-05-05T08:25:15.816Z,973.73
2019-05-05T08:26:15.884Z,973.86
2019-05-05T08:27:15.836Z,973.79
2019-05-05T08:28:15.851Z,973.72
2019-05-05T08:29:15.877Z,973.62
2019-05-05T08:30:15.852Z,973.71
2019-05-05T08:31:15.861Z,973.73
2019-05-05T08:32:15.870Z,973.79
2019-05-05T08:33:15.816Z,973.72
2019-05-05T08:34:15.858Z,973.76
2019-05-05T08:35:15.871Z,973.86
2019-05-05T08:36:15.845Z,973.82
2019-05-05T08:37:15.838Z,973.70
2019-05-05T08:38:15.873Z,973.75
2019-05-05T08:39:15.823Z,973.83
2019-05-05T08:40:15.864Z,973.70
2019-05-05T08:41:15.900Z,973.83
2019-05-05T08:42:15.853Z,973.68
2019-05-05T08:43:15.835Z,973.85
2019-05-05T08:44:18.039Z,973.89
2019-05-05T08:45:15.816Z,973.70
2019-05-05T08:46:15.871Z,973.84
2019-05-05T08:47:15.886Z,973.85
2019-05-05T08:48:15.861Z,973.92
2019-05-05T08:49:15.850Z,973.78
2019-05-05T08:50:15.835Z,973.90
2019-05-05T08:51:15.842Z,973.89
2019-05-05T08:52:15.866Z,973.78
2019-05-05T08:53:15.889Z,973.88
2019-05-05T08:54:15.859Z,973.86
2019-05-05T08:55:15.878Z,973.88
2019-05-05T08:56:15.890Z,973.96
2019-05-05T08:57:15.837Z,973.86
2019-05-05T08:58:15.840Z,973.84
2019-05-05T08:59:15.885Z,973.96
2019-05-05T09:00:15.868Z,973.90
2019-05-05T09:01:15.891Z,973.77
2019-05-05T09:02:15.868Z,973.90
2019-05-05T09:03:15.831Z,973.93
2019-05-05T09:04:15.854Z,973.99
2019-05-05T09:05:15.897Z,973.89
2019-05-05T09:06:15.867Z,973.95
2019-05-05T09:07:15.883Z,973.99
2019-05-05T09:08:15.869Z,974.01
2019-05-05T09:09:15.839Z,973.92
2019-05-05T09:10:15.911Z,974.04
2019-05-05T09:11:15.883Z,973.98
2019-05-05T09:12:15.879Z,973.87
2019-05-05T09:13:15.870Z,974.04
2019-05-05T09:14:15.885Z,973.93
2019-05-05T09:15:15.841Z,974.10
2019-05-05T09:16:15.877Z,973.88
2019-05-05T09:17:15.881Z,974.04
2019-05-05T09:18:15.864Z,973.95
2019-05-05T09:19:15.870Z,973.96
2019-05-05T09:20:15.878Z,973.95
2019-05-05T09:21:15.858Z,973.98
2019-05-05T09:22:15.887Z,974.05
2019-05-05T09:23:15.859Z,974.06
2019-05-05T09:24:15.886Z,974.11
2019-05-05T09:25:15.873Z,974.17
2019-05-05T09:26:15.870Z,974.09
2019-05-05T09:27:15.847Z,973.90
2019-05-05T09:28:15.933Z,974.09
2019-05-05T09:29:15.892Z,974.10
2019-05-05T09:30:15.919Z,974.20
2019-05-05T09:31:15.904Z,974.19
2019-05-05T09:32:15.937Z,974.09
2019-05-05T09:33:18.316Z,974.22
2019-05-05T09:34:15.944Z,974.17
2019-05-05T09:35:15.965Z,974.26
2019-05-05T09:36:15.969Z,974.10
2019-05-05T09:37:15.971Z,973.94
2019-05-05T09:38:16.001Z,974.15
2019-05-05T09:39:15.993Z,974.05
2019-05-05T09:40:16.046Z,974.02
2019-05-05T09:41:16.024Z,974.01
2019-05-05T09:42:16.015Z,974.09
2019-05-05T09:43:16.081Z,973.99
2019-05-05T09:44:16.093Z,974.06
2019-05-05T09:45:16.030Z,974.06
2019-05-05T09:46:16.093Z,974.10
2019-05-05T09:47:16.127Z,974.07
2019-05-05T09:48:16.089Z,974.12
2019-05-05T09:49:16.099Z,974.08
2019-05-05T09:50:16.137Z,974.21
2019-05-05T09:51:16.134Z,974.13
2019-05-05T09:52:16.157Z,974.20
2019-05-05T09:53:16.200Z,974.16
2019-05-05T09:54:17.441Z,974.09
2019-05-05T09:55:16.228Z,974.09
2019-05-05T09:56:16.172Z,974.16
2019-05-05T09:57:16.188Z,974.26
2019-05-05T09:58:16.277Z,974.10
2019-05-05T09:59:16.283Z,974.20
2019-05-05T10:00:16.258Z,974.23
2019-05-05T10:01:16.257Z,974.12
2019-05-05T10:02:16.307Z,974.12
2019-05-05T10:03:16.281Z,974.21
2019-05-05T10:04:16.318Z,974.18
2019-05-05T10:05:16.348Z,974.28
2019-05-05T10:06:16.318Z,974.30
2019-05-05T10:07:16.345Z,974.25
2019-05-05T10:08:16.396Z,974.27
2019-05-05T10:09:16.345Z,974.31
2019-05-05T10:10:16.374Z,974.16
2019-05-05T10:11:16.732Z,974.23
2019-05-05T10:12:16.389Z,974.28
2019-05-05T10:13:16.384Z,974.29
2019-05-05T10:14:16.407Z,974.24
2019-05-05T10:15:16.405Z,974.21
2019-05-05T10:16:16.425Z,974.31
2019-05-05T10:17:16.478Z,974.32
2019-05-05T10:18:16.448Z,974.35
2019-05-05T10:19:16.502Z,974.30
2019-05-05T10:20:16.513Z,974.30
2019-05-05T10:21:17.836Z,974.30
2019-05-05T10:22:16.555Z,974.21
2019-05-05T10:23:16.524Z,974.33
2019-05-05T10:24:27.647Z,974.28
2019-05-05T10:25:16.578Z,974.14
2019-05-05T10:26:16.562Z,974.19
2019-05-05T10:27:16.538Z,974.16
2019-05-05T10:28:16.581Z,974.13
2019-05-05T10:29:16.574Z,974.17
2019-05-05T10:30:16.529Z,974.18
2019-05-05T10:31:16.546Z,974.17
2019-05-05T10:32:16.510Z,974.08
2019-05-05T10:33:16.523Z,974.27
2019-05-05T10:34:16.549Z,974.20
2019-05-05T10:35:16.583Z,974.27
2019-05-05T10:36:16.506Z,974.28
2019-05-05T10:37:16.583Z,974.20
2019-05-05T10:38:16.568Z,974.15
2019-05-05T10:39:16.529Z,974.22
2019-05-05T10:40:16.568Z,974.07
2019-05-05T10:41:16.563Z,974.15
2019-05-05T10:42:16.555Z,974.02
2019-05-05T10:43:16.557Z,974.06
2019-05-05T10:44:16.606Z,974.24
2019-05-05T10:45:16.544Z,974.23
2019-05-05T10:46:16.573Z,974.20
2019-05-05T10:47:16.597Z,974.02
2019-05-05T10:48:16.564Z,974.10
2019-05-05T10:49:16.557Z,974.25
2019-05-05T10:50:16.547Z,974.11
2019-05-05T10:51:16.512Z,973.90
2019-05-05T10:52:16.565Z,974.27
2019-05-05T10:53:16.562Z,974.20
2019-05-05T10:54:16.508Z,974.06
2019-05-05T10:55:16.552Z,974.14
2019-05-05T10:56:16.569Z,974.05
2019-05-05T10:57:18.405Z,974.21
2019-05-05T10:58:16.586Z,974.12
2019-05-05T10:59:16.600Z,974.17
2019-05-05T11:00:16.566Z,974.20
2019-05-05T11:01:16.550Z,974.11
2019-05-05T11:02:16.576Z,974.05
2019-05-05T11:03:16.559Z,973.89
2019-05-05T11:04:16.580Z,974.17
2019-05-05T11:05:16.559Z,974.34
2019-05-05T11:06:16.556Z,974.21
2019-05-05T11:07:16.573Z,974.12
2019-05-05T11:08:16.591Z,974.01
2019-05-05T11:09:16.594Z,974.13
2019-05-05T11:10:16.581Z,974.26
2019-05-05T11:11:16.585Z,974.25
2019-05-05T11:12:16.545Z,974.23
2019-05-05T11:13:16.569Z,974.32
2019-05-05T11:14:16.615Z,974.37
2019-05-05T11:15:16.558Z,974.27
2019-05-05T11:16:16.559Z,974.33
2019-05-05T11:17:16.590Z,974.22
2019-05-05T11:18:16.569Z,974.17
2019-05-05T11:19:16.562Z,974.19
2019-05-05T11:20:16.587Z,974.25
2019-05-05T11:21:16.585Z,974.07
2019-05-05T11:22:16.614Z,974.27
2019-05-05T11:23:16.612Z,974.25
2019-05-05T11:24:16.583Z,974.33
2019-05-05T11:25:16.580Z,974.24
2019-05-05T11:26:16.609Z,974.28
2019-05-05T11:27:16.590Z,974.23
2019-05-05T11:28:16.587Z,974.40
2019-05-05T11:29:16.589Z,974.42
2019-05-05T11:30:16.571Z,974.36
2019-05-05T11:31:16.582Z,974.35
2019-05-05T11:32:16.613Z,974.41
2019-05-05T11:33:16.583Z,974.31
2019-05-05T11:34:16.596Z,974.31
2019-05-05T11:35:16.638Z,974.37
2019-05-05T11:36:16.574Z,974.42
2019-05-05T11:37:16.576Z,974.47
2019-05-05T11:38:16.566Z,974.32
2019-05-05T11:39:16.583Z,974.37
2019-05-05T11:40:16.601Z,974.29
2019-05-05T11:41:16.597Z,974.22
2019-05-05T11:42:16.566Z,974.30
2019-05-05T11:43:16.591Z,974.37
2019-05-05T11:44:16.564Z,974.31
2019-05-05T11:45:16.563Z,974.27
2019-05-05T11:46:16.632Z,974.23
2019-05-05T11:47:16.585Z,974.34
2019-05-05T11:48:16.578Z,974.33
2019-05-05T11:49:16.591Z,974.24
2019-05-05T11:50:16.622Z,974.43
2019-05-05T11:51:16.608Z,974.44
2019-05-05T11:52:16.629Z,974.46
2019-05-05T11:53:16.635Z,974.37
2019-05-05T11:54:16.597Z,974.53
2019-05-05T11:55:16.596Z,974.41
2019-05-05T11:56:16.576Z,974.40
2019-05-05T11:57:16.592Z,974.41
2019-05-05T11:58:16.616Z,974.49
2019-05-05T11:59:16.616Z,974.43
2019-05-05T12:00:16.597Z,974.49
2019-05-05T12:01:16.594Z,974.37
2019-05-05T12:02:16.589Z,974.56
2019-05-05T12:03:16.578Z,974.38
2019-05-05T12:04:16.612Z,974.45
2019-05-05T12:05:16.596Z,974.46
2019-05-05T12:06:16.576Z,974.48
2019-05-05T12:07:16.645Z,974.32
2019-05-05T12:08:16.651Z,974.41
2019-05-05T12:09:16.604Z,974.46
2019-05-05T12:10:16.616Z,974.42
2019-05-05T12:11:16.597Z,974.32
2019-05-05T12:12:16.613Z,974.37
2019-05-05T12:13:16.633Z,974.39
2019-05-05T12:14:16.638Z,974.43
2019-05-05T12:15:16.627Z,974.39
2019-05-05T12:16:16.660Z,974.36
2019-05-05T12:17:16.668Z,974.30
2019-05-05T12:18:16.685Z,974.26
2019-05-05T12:19:16.693Z,974.26
2019-05-05T12:20:16.734Z,974.27
2019-05-05T12:21:16.699Z,974.21
2019-05-05T12:22:16.723Z,974.34
2019-05-05T12:23:16.737Z,974.44
2019-05-05T12:24:16.738Z,974.34
2019-05-05T12:25:27.753Z,974.40
2019-05-05T12:26:16.748Z,974.35
2019-05-05T12:27:16.789Z,974.35
2019-05-05T12:28:16.775Z,974.50